Time;durP1;ratioP1;P1;durP2;ratioP2;P2;SDS_P1;SDS_P2;PMS_P1;PMS_P2;Temp;Humidity;BMP_temperature;BMP_pressure;BME280_temperature;BME280_humidity;BME280_pressure;Samples;Min_cycle;Max_cycle;Signal;HPM_P1;HPM_P2
2022/05/26 00:00:31;;;;;;;6.10;2.72;;;;;;;;;;4940647;28;20024;-71
2022/05/26 00:02:57;;;;;;;6.15;3.10;;;;;;;;;;4945205;28;20594;-72
2022/05/26 00:05:22;;;;;;;8.02;3.22;;;;;;;;;;4941374;28;20507;-71
2022/05/26 00:07:48;;;;;;;7.82;3.20;;;;;;;;;;4942417;28;20051;-71
2022/05/26 00:10:14;;;;;;;8.07;2.92;;;;;;;;;;4943015;28;20031;-72
2022/05/26 00:12:39;;;;;;;6.57;2.90;;;;;;;;;;4943717;28;20432;-71
2022/05/26 00:15:06;;;;;;;7.20;2.97;;;;;;;;;;4954920;28;20538;-71
2022/05/26 00:17:31;;;;;;;5.80;3.05;;;;;;;;;;4948487;28;20032;-72
2022/05/26 00:19:58;;;;;;;5.05;2.90;;;;;;;;;;4940501;28;20058;-71
2022/05/26 00:22:24;;;;;;;4.68;2.88;;;;;;;;;;4938783;28;20071;-72
2022/05/26 00:24:50;;;;;;;7.20;3.22;;;;;;;;;;4940990;28;20030;-71
2022/05/26 00:27:15;;;;;;;9.65;2.95;;;;;;;;;;4944244;28;20035;-72
2022/05/26 00:29:40;;;;;;;6.50;3.25;;;;;;;;;;4940825;28;20393;-71
2022/05/26 00:32:06;;;;;;;10.38;3.95;;;;;;;;;;4939957;28;20035;-71
2022/05/26 00:34:32;;;;;;;6.90;3.30;;;;;;;;;;4944372;28;20581;-71
2022/05/26 00:36:57;;;;;;;6.72;3.42;;;;;;;;;;4945408;28;20020;-71
2022/05/26 00:39:25;;;;;;;4.18;3.03;;;;;;;;;;4945999;28;20476;-71
2022/05/26 00:42:00;;;;;;;6.60;3.50;;;;;;;;;;4949903;28;20035;-71
2022/05/26 00:44:27;;;;;;;8.10;3.30;;;;;;;;;;4946386;28;20055;-71
2022/05/26 00:47:08;;;;;;;6.22;3.38;;;;;;;;;;4945368;28;20044;-72
2022/05/26 00:49:45;;;;;;;12.02;3.70;;;;;;;;;;4947778;28;20042;-71
2022/05/26 00:52:14;;;;;;;5.10;3.03;;;;;;;;;;4948546;28;20044;-71
2022/05/26 00:54:41;;;;;;;10.05;3.70;;;;;;;;;;4944636;28;20487;-71
2022/05/26 00:57:14;;;;;;;6.13;3.50;;;;;;;;;;4940197;28;20016;-72
2022/05/26 00:59:51;;;;;;;9.15;3.70;;;;;;;;;;4948908;28;20134;-71
2022/05/26 01:02:21;;;;;;;8.07;3.25;;;;;;;;;;4941065;28;20460;-71
2022/05/26 01:04:50;;;;;;;9.40;3.65;;;;;;;;;;4942989;28;20106;-71
2022/05/26 01:07:20;;;;;;;8.60;3.58;;;;;;;;;;4944565;28;20047;-72
2022/05/26 01:09:46;;;;;;;9.35;3.33;;;;;;;;;;4945400;28;20038;-71
2022/05/26 01:12:12;;;;;;;8.85;3.40;;;;;;;;;;4962356;28;20035;-71
2022/05/26 01:14:42;;;;;;;8.82;3.65;;;;;;;;;;4948686;28;20504;-71
2022/05/26 01:17:19;;;;;;;9.20;3.33;;;;;;;;;;4955469;28;20039;-71
2022/05/26 01:20:03;;;;;;;10.95;3.58;;;;;;;;;;4938380;28;20059;-71
2022/05/26 01:22:31;;;;;;;10.00;3.50;;;;;;;;;;4937842;28;20039;-72
2022/05/26 01:25:08;;;;;;;10.43;3.55;;;;;;;;;;4948229;28;20080;-72
2022/05/26 01:27:45;;;;;;;7.72;3.33;;;;;;;;;;4961575;28;20447;-71
2022/05/26 01:30:23;;;;;;;9.57;3.67;;;;;;;;;;4943985;28;20128;-72
2022/05/26 01:32:53;;;;;;;8.07;3.53;;;;;;;;;;4947148;28;20082;-72
2022/05/26 01:35:29;;;;;;;10.75;3.30;;;;;;;;;;4944587;28;20134;-72
2022/05/26 01:38:18;;;;;;;14.40;4.75;;;;;;;;;;4947704;28;20035;-71
2022/05/26 01:40:53;;;;;;;6.35;3.13;;;;;;;;;;4966440;28;20046;-72
2022/05/26 01:43:39;;;;;;;5.60;3.20;;;;;;;;;;4949314;28;20035;-72
2022/05/26 01:46:11;;;;;;;12.32;3.38;;;;;;;;;;4940698;28;20042;-71
2022/05/26 01:48:53;;;;;;;10.32;3.25;;;;;;;;;;4947951;28;20511;-72
2022/05/26 01:51:37;;;;;;;15.85;3.40;;;;;;;;;;4948358;28;20118;-71
2022/05/26 01:54:12;;;;;;;10.43;3.72;;;;;;;;;;4943075;29;20040;-71
2022/05/26 01:56:51;;;;;;;10.10;3.22;;;;;;;;;;4940439;28;20031;-71
2022/05/26 01:59:28;;;;;;;11.48;3.72;;;;;;;;;;4946270;28;20051;-71
2022/05/26 02:01:58;;;;;;;12.73;3.70;;;;;;;;;;4943203;28;20051;-72
2022/05/26 02:04:33;;;;;;;17.38;3.60;;;;;;;;;;4943876;28;20624;-72
2022/05/26 02:07:16;;;;;;;9.57;3.05;;;;;;;;;;4944372;28;20026;-72
2022/05/26 02:09:43;;;;;;;8.07;3.33;;;;;;;;;;4941910;28;20034;-71
2022/05/26 02:12:21;;;;;;;9.68;4.05;;;;;;;;;;4958746;28;20035;-71
2022/05/26 02:14:54;;;;;;;8.57;3.10;;;;;;;;;;4944533;28;20039;-71
2022/05/26 02:17:29;;;;;;;14.55;4.10;;;;;;;;;;4944451;28;20039;-72
2022/05/26 02:20:05;;;;;;;10.00;3.22;;;;;;;;;;4945932;28;20054;-71
2022/05/26 02:22:49;;;;;;;10.20;3.38;;;;;;;;;;4941511;28;20047;-71
2022/05/26 02:25:18;;;;;;;;;;;;;;;;;;4941476;28;20104;-71
2022/05/26 02:27:46;;;;;;;12.18;4.07;;;;;;;;;;4941110;28;19915;-71
2022/05/26 02:30:13;;;;;;;11.60;3.67;;;;;;;;;;4944625;28;20027;-72
2022/05/26 02:32:43;;;;;;;11.52;3.97;;;;;;;;;;4943082;28;20047;-72
2022/05/26 02:35:15;;;;;;;12.20;3.90;;;;;;;;;;4943152;28;20031;-71
2022/05/26 02:37:44;;;;;;;15.73;4.18;;;;;;;;;;4946307;28;20059;-72
2022/05/26 02:40:11;;;;;;;10.82;3.83;;;;;;;;;;4942286;28;20034;-72
2022/05/26 02:42:44;;;;;;;10.40;3.90;;;;;;;;;;4944152;28;20032;-71
2022/05/26 02:45:09;;;;;;;;;;;;;;;;;;4947566;28;20043;-72
2022/05/26 02:47:46;;;;;;;11.95;3.58;;;;;;;;;;4956822;28;20500;-71
2022/05/26 02:50:23;;;;;;;14.23;4.07;;;;;;;;;;4946973;28;20039;-72
2022/05/26 02:53:07;;;;;;;9.68;3.85;;;;;;;;;;4947042;28;20043;-71
2022/05/26 02:55:58;;;;;;;12.48;3.53;;;;;;;;;;4944844;28;20110;-72
2022/05/26 02:58:38;;;;;;;13.20;4.20;;;;;;;;;;4938543;28;20047;-71
2022/05/26 03:01:18;;;;;;;9.30;3.53;;;;;;;;;;4947888;28;20122;-72
2022/05/26 03:03:56;;;;;;;13.80;3.88;;;;;;;;;;4937223;28;20118;-71
2022/05/26 03:06:26;;;;;;;15.13;3.80;;;;;;;;;;5024501;28;20556;-71
2022/05/26 03:08:53;;;;;;;12.52;3.90;;;;;;;;;;4954461;28;20043;-71
2022/05/26 03:11:22;;;;;;;11.10;3.03;;;;;;;;;;4945833;28;20039;-71
2022/05/26 03:13:50;;;;;;;9.18;3.63;;;;;;;;;;4945475;28;20039;-71
2022/05/26 03:16:15;;;;;;;16.42;3.90;;;;;;;;;;4947870;28;20119;-72
2022/05/26 03:18:41;;;;;;;17.40;4.13;;;;;;;;;;4957677;28;20102;-71
2022/05/26 03:21:08;;;;;;;14.57;3.60;;;;;;;;;;4944872;28;20528;-71
2022/05/26 03:23:34;;;;;;;14.15;3.83;;;;;;;;;;4942839;28;20035;-71
2022/05/26 03:25:59;;;;;;;14.20;3.95;;;;;;;;;;4945243;28;20035;-71
2022/05/26 03:28:27;;;;;;;16.95;4.32;;;;;;;;;;4940626;28;20044;-71
2022/05/26 03:30:52;;;;;;;12.95;3.65;;;;;;;;;;4944007;28;20026;-72
2022/05/26 03:33:18;;;;;;;12.85;3.60;;;;;;;;;;4945574;29;20027;-71
2022/05/26 03:41:15;;;;;;;22.00;4.47;;;;;;;;;;4983423;28;20420;-71
2022/05/26 03:43:48;;;;;;;12.35;3.65;;;;;;;;;;4942250;28;20047;-71
2022/05/26 03:46:13;;;;;;;12.50;3.55;;;;;;;;;;4945736;28;20567;-72
2022/05/26 03:48:40;;;;;;;11.95;3.58;;;;;;;;;;4942408;28;20036;-72
2022/05/26 03:51:06;;;;;;;13.65;3.55;;;;;;;;;;4948543;28;20047;-72
2022/05/26 03:53:33;;;;;;;14.60;3.80;;;;;;;;;;4946101;28;20039;-71
2022/05/26 03:55:59;;;;;;;26.70;4.85;;;;;;;;;;4946253;28;20043;-71
2022/05/26 03:58:24;;;;;;;12.52;3.70;;;;;;;;;;4941430;28;20036;-71
2022/05/26 04:00:50;;;;;;;20.42;3.92;;;;;;;;;;4943869;28;20038;-71
2022/05/26 04:03:16;;;;;;;12.20;3.35;;;;;;;;;;4946371;28;20046;-71
2022/05/26 04:05:41;;;;;;;11.73;3.60;;;;;;;;;;4949092;28;20051;-71
2022/05/26 04:08:07;;;;;;;13.43;3.67;;;;;;;;;;4941734;28;20101;-72
2022/05/26 04:10:33;;;;;;;14.10;3.97;;;;;;;;;;4949005;28;20069;-71
2022/05/26 04:12:58;;;;;;;8.35;3.67;;;;;;;;;;4949819;28;20031;-71
2022/05/26 04:15:23;;;;;;;11.38;3.65;;;;;;;;;;4946216;28;20046;-72
2022/05/26 04:17:49;;;;;;;11.70;3.72;;;;;;;;;;4964527;28;20069;-72
2022/05/26 04:20:18;;;;;;;18.33;4.07;;;;;;;;;;4946757;28;20051;-71
2022/05/26 04:22:43;;;;;;;15.93;3.72;;;;;;;;;;4945626;28;20058;-71
2022/05/26 04:25:09;;;;;;;12.10;4.47;;;;;;;;;;4949353;28;20544;-72
2022/05/26 04:27:35;;;;;;;19.17;4.05;;;;;;;;;;4951644;28;20046;-72
2022/05/26 04:30:03;;;;;;;21.42;4.18;;;;;;;;;;4949631;28;20070;-71
2022/05/26 04:32:29;;;;;;;13.95;3.53;;;;;;;;;;4944868;28;20047;-71
2022/05/26 04:34:54;;;;;;;14.10;3.90;;;;;;;;;;4946026;28;20054;-71
2022/05/26 04:37:23;;;;;;;14.27;4.00;;;;;;;;;;4948678;28;20047;-71
2022/05/26 04:39:50;;;;;;;13.73;3.40;;;;;;;;;;4945394;28;20566;-71
2022/05/26 04:42:16;;;;;;;12.63;3.75;;;;;;;;;;4947295;29;20028;-71
2022/05/26 04:44:43;;;;;;;20.63;4.70;;;;;;;;;;4942605;28;20043;-71
2022/05/26 04:47:09;;;;;;;15.60;3.95;;;;;;;;;;4949108;28;20055;-72
2022/05/26 04:49:38;;;;;;;13.18;4.15;;;;;;;;;;4952199;28;20039;-72
2022/05/26 04:52:08;;;;;;;18.17;4.38;;;;;;;;;;4948554;28;20046;-71
2022/05/26 04:54:38;;;;;;;16.15;4.63;;;;;;;;;;4949280;28;20058;-71
2022/05/26 04:57:05;;;;;;;21.35;5.35;;;;;;;;;;4938855;28;20032;-71
2022/05/26 04:59:31;;;;;;;16.58;5.47;;;;;;;;;;4947533;28;20104;-71
2022/05/26 05:01:56;;;;;;;18.83;5.25;;;;;;;;;;4948906;28;20066;-72
2022/05/26 05:04:25;;;;;;;19.55;5.43;;;;;;;;;;4947249;28;20059;-72
2022/05/26 05:06:51;;;;;;;14.52;4.75;;;;;;;;;;4945779;28;20125;-71
2022/05/26 05:09:17;;;;;;;15.63;4.90;;;;;;;;;;4949037;28;20031;-71
2022/05/26 05:11:42;;;;;;;17.92;5.63;;;;;;;;;;4948153;28;20039;-71
2022/05/26 05:14:08;;;;;;;16.35;5.32;;;;;;;;;;4949607;28;20039;-72
2022/05/26 05:16:42;;;;;;;12.90;4.80;;;;;;;;;;4948948;28;20105;-71
2022/05/26 05:19:07;;;;;;;;;;;;;;;;;;4948222;28;20055;-71
2022/05/26 05:21:48;;;;;;;15.73;5.15;;;;;;;;;;4948499;28;20640;-71
2022/05/26 05:24:24;;;;;;;18.83;6.35;;;;;;;;;;4943632;29;20047;-71
2022/05/26 05:26:55;;;;;;;14.13;5.60;;;;;;;;;;4947892;28;20461;-71
2022/05/26 05:29:26;;;;;;;16.88;5.97;;;;;;;;;;4947238;28;20047;-72
2022/05/26 05:32:00;;;;;;;18.50;5.45;;;;;;;;;;4947822;28;20055;-71
2022/05/26 05:34:35;;;;;;;18.13;5.05;;;;;;;;;;4946058;28;20066;-72
2022/05/26 05:37:01;;;;;;;17.17;5.20;;;;;;;;;;4945773;28;20066;-72
2022/05/26 05:39:26;;;;;;;16.65;5.53;;;;;;;;;;4948704;28;20027;-71
2022/05/26 05:41:54;;;;;;;19.52;5.45;;;;;;;;;;4946571;28;20125;-71
2022/05/26 05:44:19;;;;;;;17.02;5.47;;;;;;;;;;4944012;28;20036;-70
2022/05/26 05:46:54;;;;;;;14.73;5.22;;;;;;;;;;4944691;28;20057;-71
2022/05/26 05:49:24;;;;;;;17.35;5.07;;;;;;;;;;4941802;29;20060;-71
2022/05/26 05:51:50;;;;;;;10.88;4.63;;;;;;;;;;4941843;28;20107;-71
2022/05/26 05:54:17;;;;;;;15.77;5.38;;;;;;;;;;4949022;28;20134;-71
2022/05/26 05:56:43;;;;;;;18.05;4.82;;;;;;;;;;4948215;28;20110;-72
2022/05/26 05:59:08;;;;;;;26.35;6.15;;;;;;;;;;4954641;28;20129;-71
2022/05/26 06:01:33;;;;;;;18.85;5.53;;;;;;;;;;4948456;28;20104;-71
2022/05/26 06:03:59;;;;;;;16.27;5.10;;;;;;;;;;4957344;28;20050;-71
2022/05/26 06:06:24;;;;;;;15.27;5.40;;;;;;;;;;4948187;28;20052;-71
2022/05/26 06:08:49;;;;;;;21.63;5.95;;;;;;;;;;4944510;28;20123;-71
2022/05/26 06:11:15;;;;;;;17.65;4.70;;;;;;;;;;4958136;28;20044;-71
2022/05/26 06:13:41;;;;;;;18.95;5.93;;;;;;;;;;4946489;28;20046;-71
2022/05/26 06:16:06;;;;;;;15.20;4.60;;;;;;;;;;4945723;28;20050;-71
2022/05/26 06:18:32;;;;;;;12.27;4.82;;;;;;;;;;4953809;28;20074;-71
2022/05/26 06:21:02;;;;;;;19.48;5.80;;;;;;;;;;4947719;28;20085;-72
2022/05/26 06:23:27;;;;;;;18.52;5.85;;;;;;;;;;4935699;28;20074;-71
2022/05/26 06:25:53;;;;;;;22.85;6.47;;;;;;;;;;4945341;29;20086;-71
2022/05/26 06:31:02;;;;;;;19.45;5.70;;;;;;;;;;4944477;28;20114;-72
2022/05/26 06:38:56;;;;;;;12.43;5.25;;;;;;;;;;4940480;28;19964;-71
2022/05/26 06:44:05;;;;;;;15.10;5.38;;;;;;;;;;4940333;28;20475;-71
2022/05/26 06:46:31;;;;;;;15.30;6.13;;;;;;;;;;4937727;28;20496;-71
2022/05/26 06:48:56;;;;;;;13.68;5.63;;;;;;;;;;4954659;28;20043;-71
2022/05/26 06:51:26;;;;;;;18.73;6.38;;;;;;;;;;4938045;28;20031;-72
2022/05/26 06:53:51;;;;;;;15.75;5.75;;;;;;;;;;4943808;28;20052;-71
2022/05/26 06:56:17;;;;;;;16.25;5.88;;;;;;;;;;4943051;28;20475;-71
2022/05/26 06:58:42;;;;;;;18.92;6.18;;;;;;;;;;4966203;28;20043;-72
2022/05/26 07:01:07;;;;;;;12.88;5.95;;;;;;;;;;4944326;28;20054;-72
2022/05/26 07:03:33;;;;;;;18.77;6.82;;;;;;;;;;4946099;28;20579;-71
2022/05/26 07:05:58;;;;;;;16.80;6.55;;;;;;;;;;4943484;28;20065;-71
2022/05/26 07:08:23;;;;;;;12.57;5.72;;;;;;;;;;4941772;29;20536;-70
2022/05/26 07:10:50;;;;;;;18.60;5.35;;;;;;;;;;4940187;28;20622;-71
2022/05/26 07:13:16;;;;;;;16.00;5.78;;;;;;;;;;4931586;28;20140;-71
2022/05/26 07:15:41;;;;;;;16.70;6.07;;;;;;;;;;4930499;28;20479;-71
2022/05/26 07:18:07;;;;;;;11.98;5.28;;;;;;;;;;4930164;28;20065;-71
2022/05/26 07:20:34;;;;;;;12.05;5.60;;;;;;;;;;4928990;28;20059;-71
2022/05/26 07:22:59;;;;;;;13.00;5.18;;;;;;;;;;4925894;28;20836;-71
2022/05/26 07:25:25;;;;;;;11.93;4.57;;;;;;;;;;4938141;28;20205;-71
2022/05/26 07:27:50;;;;;;;12.70;4.45;;;;;;;;;;4929124;28;20027;-71
2022/05/26 07:30:15;;;;;;;12.43;4.72;;;;;;;;;;4925104;28;20034;-71
2022/05/26 07:32:41;;;;;;;10.98;4.22;;;;;;;;;;4924712;28;20047;-71
2022/05/26 07:35:07;;;;;;;13.82;4.63;;;;;;;;;;4932856;28;20822;-71
2022/05/26 07:43:02;;;;;;;12.73;4.18;;;;;;;;;;4935762;28;19961;-71
2022/05/26 07:45:27;;;;;;;9.90;3.85;;;;;;;;;;4939343;28;20119;-72
2022/05/26 07:47:53;;;;;;;12.07;4.50;;;;;;;;;;4941388;28;20563;-71
2022/05/26 07:50:21;;;;;;;9.70;4.57;;;;;;;;;;4943238;28;20051;-71
2022/05/26 07:52:48;;;;;;;14.95;4.32;;;;;;;;;;4954552;28;20067;-72
2022/05/26 07:55:18;;;;;;;14.20;4.50;;;;;;;;;;4940586;28;20122;-71
2022/05/26 07:57:43;;;;;;;16.35;5.00;;;;;;;;;;4943132;28;20758;-72
2022/05/26 08:00:09;;;;;;;14.52;4.93;;;;;;;;;;4941919;28;20039;-71
2022/05/26 08:02:35;;;;;;;16.33;6.03;;;;;;;;;;4937577;28;20047;-71
2022/05/26 08:05:00;;;;;;;14.57;5.28;;;;;;;;;;4939465;28;20060;-71
2022/05/26 08:07:25;;;;;;;13.95;5.15;;;;;;;;;;4939219;28;20047;-71
2022/05/26 08:09:51;;;;;;;18.35;5.65;;;;;;;;;;4941286;28;20039;-71
2022/05/26 08:12:16;;;;;;;11.13;6.00;;;;;;;;;;4938080;29;20081;-71
2022/05/26 08:14:43;;;;;;;12.73;5.10;;;;;;;;;;4941621;28;20450;-71
2022/05/26 08:17:13;;;;;;;8.82;4.95;;;;;;;;;;4947100;28;20078;-71
2022/05/26 08:19:39;;;;;;;10.73;4.88;;;;;;;;;;4941150;28;20496;-71
2022/05/26 08:22:04;;;;;;;7.85;3.97;;;;;;;;;;4938941;28;20515;-71
2022/05/26 08:24:30;;;;;;;8.30;3.88;;;;;;;;;;4940983;28;20039;-71
2022/05/26 08:26:56;;;;;;;9.13;3.95;;;;;;;;;;4944647;28;20047;-71
2022/05/26 08:29:21;;;;;;;13.60;4.50;;;;;;;;;;4953511;28;20043;-72
2022/05/26 08:31:47;;;;;;;14.85;4.78;;;;;;;;;;4932771;28;20386;-72
2022/05/26 08:34:12;;;;;;;10.70;4.07;;;;;;;;;;4942602;28;20629;-72
2022/05/26 08:36:38;;;;;;;11.35;4.20;;;;;;;;;;4946400;28;20039;-72
2022/05/26 08:39:05;;;;;;;6.53;3.40;;;;;;;;;;4959612;28;20543;-72
2022/05/26 08:41:41;;;;;;;8.63;3.85;;;;;;;;;;4951763;28;20071;-72
2022/05/26 08:44:14;;;;;;;6.38;3.60;;;;;;;;;;4944465;28;20082;-72
2022/05/26 08:46:48;;;;;;;10.07;3.67;;;;;;;;;;4966366;28;20035;-72
2022/05/26 08:49:33;;;;;;;6.00;3.03;;;;;;;;;;4934061;28;20204;-72
2022/05/26 08:52:03;;;;;;;13.73;4.18;;;;;;;;;;4938810;28;20042;-72
2022/05/26 08:54:38;;;;;;;8.05;3.90;;;;;;;;;;4938361;29;20035;-72
2022/05/26 08:57:07;;;;;;;9.75;3.85;;;;;;;;;;4941895;28;20805;-71
2022/05/26 08:59:38;;;;;;;9.80;4.68;;;;;;;;;;4941883;28;20046;-71
2022/05/26 09:02:05;;;;;;;9.20;4.50;;;;;;;;;;4942495;28;20039;-71
2022/05/26 09:04:30;;;;;;;9.50;4.90;;;;;;;;;;4943225;28;20520;-71
2022/05/26 09:12:56;;;;;;;7.43;3.00;;;;;;;;;;4937966;29;20061;-69
2022/05/26 09:15:22;;;;;;;9.13;3.70;;;;;;;;;;4941354;29;20104;-69
2022/05/26 09:17:48;;;;;;;8.40;3.45;;;;;;;;;;4940012;28;20681;-69
2022/05/26 09:20:35;;;;;;;9.63;4.03;;;;;;;;;;4937687;29;20638;-69
2022/05/26 09:23:08;;;;;;;9.80;4.20;;;;;;;;;;4938151;28;20138;-69
2022/05/26 09:25:40;;;;;;;;;;;;;;;;;;4942698;28;20800;-70
2022/05/26 09:28:09;;;;;;;8.77;3.50;;;;;;;;;;4943970;28;19929;-68
2022/05/26 09:30:35;;;;;;;8.65;3.85;;;;;;;;;;4940542;29;20043;-68
2022/05/26 09:33:00;;;;;;;7.30;4.00;;;;;;;;;;4933364;28;20051;-70
2022/05/26 09:35:28;;;;;;;9.05;3.60;;;;;;;;;;4936674;28;20058;-72
2022/05/26 09:37:56;;;;;;;9.75;3.25;;;;;;;;;;4938896;29;20724;-72
2022/05/26 09:40:25;;;;;;;9.63;3.50;;;;;;;;;;4942316;29;20929;-72
2022/05/26 09:42:58;;;;;;;7.38;3.10;;;;;;;;;;4958193;28;20465;-72
2022/05/26 09:45:23;;;;;;;7.65;3.00;;;;;;;;;;4942384;29;20039;-71
2022/05/26 09:47:57;;;;;;;5.30;3.00;;;;;;;;;;4936023;28;20458;-71
2022/05/26 09:50:31;;;;;;;6.03;2.50;;;;;;;;;;4937336;28;20108;-72
2022/05/26 09:52:57;;;;;;;7.18;2.58;;;;;;;;;;4953833;28;20424;-71
2022/05/26 09:55:29;;;;;;;6.03;2.55;;;;;;;;;;4943614;28;20601;-71
2022/05/26 09:58:05;;;;;;;8.68;2.60;;;;;;;;;;4941806;28;20865;-71
2022/05/26 10:00:40;;;;;;;4.95;2.67;;;;;;;;;;4941661;28;20508;-71
2022/05/26 10:03:31;;;;;;;7.15;2.60;;;;;;;;;;4936397;28;20142;-72
2022/05/26 10:06:02;;;;;;;5.28;2.15;;;;;;;;;;4923271;28;20233;-71
2022/05/26 10:09:01;;;;;;;5.72;2.60;;;;;;;;;;4938529;28;20124;-71
2022/05/26 10:11:42;;;;;;;8.23;3.15;;;;;;;;;;4935716;28;20059;-71
2022/05/26 10:14:24;;;;;;;5.63;1.90;;;;;;;;;;4940513;28;20074;-70
2022/05/26 10:16:58;;;;;;;6.57;2.10;;;;;;;;;;4937657;28;20606;-70
2022/05/26 10:19:51;;;;;;;6.18;1.90;;;;;;;;;;4941706;28;20047;-71
2022/05/26 10:22:36;;;;;;;4.43;2.17;;;;;;;;;;4940200;28;20043;-71
2022/05/26 10:25:35;;;;;;;8.18;2.30;;;;;;;;;;4950490;28;20069;-71
2022/05/26 10:28:25;;;;;;;9.63;2.08;;;;;;;;;;4934502;28;20039;-70
2022/05/26 10:31:01;;;;;;;5.35;1.90;;;;;;;;;;4936956;28;20589;-69
2022/05/26 10:33:48;;;;;;;8.65;2.35;;;;;;;;;;4952013;28;20047;-69
2022/05/26 10:36:24;;;;;;;6.18;2.20;;;;;;;;;;4940016;29;20054;-68
2022/05/26 10:38:52;;;;;;;4.95;2.30;;;;;;;;;;4933965;28;20134;-69
2022/05/26 10:41:47;;;;;;;5.70;2.30;;;;;;;;;;4937885;28;20078;-68
2022/05/26 10:44:23;;;;;;;3.72;2.10;;;;;;;;;;4937843;28;20051;-68
2022/05/26 10:47:24;;;;;;;7.15;2.53;;;;;;;;;;4939360;28;20718;-68
2022/05/26 10:50:02;;;;;;;6.85;2.22;;;;;;;;;;4937292;28;20051;-68
2022/05/26 10:52:36;;;;;;;5.65;1.83;;;;;;;;;;4972808;28;20100;-68
2022/05/26 10:55:11;;;;;;;4.85;2.35;;;;;;;;;;4944851;28;20122;-68
2022/05/26 10:57:45;;;;;;;4.15;2.17;;;;;;;;;;4937476;29;20093;-68
2022/05/26 11:00:10;;;;;;;;;;;;;;;;;;4938243;28;20043;-68
2022/05/26 11:02:47;;;;;;;4.00;2.10;;;;;;;;;;4935055;28;19976;-68
2022/05/26 11:05:38;;;;;;;6.25;2.30;;;;;;;;;;4938608;28;20040;-69
2022/05/26 11:08:45;;;;;;;8.00;2.10;;;;;;;;;;4943485;28;20039;-69
2022/05/26 11:11:35;;;;;;;6.22;2.10;;;;;;;;;;4947401;28;20054;-68
2022/05/26 11:17:21;;;;;;;4.82;1.70;;;;;;;;;;4940712;28;20108;-69
2022/05/26 11:17:22;;;;;;;5.10;1.90;;;;;;;;;;4944389;28;20046;-69
2022/05/26 11:20:01;;;;;;;4.88;1.98;;;;;;;;;;4940314;28;20120;-69
2022/05/26 11:22:26;;;;;;;2.85;1.95;;;;;;;;;;4940463;28;20058;-69
2022/05/26 11:24:53;;;;;;;5.18;1.77;;;;;;;;;;4941735;28;20031;-68
2022/05/26 11:27:27;;;;;;;5.03;1.98;;;;;;;;;;4937765;28;20039;-69
2022/05/26 11:29:56;;;;;;;5.45;2.10;;;;;;;;;;4942873;28;20514;-69
2022/05/26 11:38:12;;;;;;;7.60;1.92;;;;;;;;;;4933970;28;20051;-69
2022/05/26 11:40:56;;;;;;;3.72;1.80;;;;;;;;;;4941599;28;20039;-69
2022/05/26 11:43:27;;;;;;;8.45;1.98;;;;;;;;;;4939964;28;20067;-69
2022/05/26 11:45:53;;;;;;;4.18;1.83;;;;;;;;;;4939388;28;20031;-68
2022/05/26 11:48:31;;;;;;;5.38;1.88;;;;;;;;;;4944591;28;20031;-69
2022/05/26 11:50:59;;;;;;;3.33;1.48;;;;;;;;;;4943166;28;20046;-69
2022/05/26 11:53:28;;;;;;;7.72;2.03;;;;;;;;;;4937178;28;20134;-69
2022/05/26 11:55:58;;;;;;;7.45;2.03;;;;;;;;;;4938434;28;20051;-69
2022/05/26 11:58:35;;;;;;;4.50;1.70;;;;;;;;;;4938246;28;20047;-69
2022/05/26 12:01:19;;;;;;;7.03;2.03;;;;;;;;;;4938737;28;20039;-69
2022/05/26 12:04:26;;;;;;;4.32;1.48;;;;;;;;;;4936917;28;20058;-69
2022/05/26 12:07:04;;;;;;;4.40;1.98;;;;;;;;;;4944857;28;20058;-70
2022/05/26 12:09:35;;;;;;;4.90;1.67;;;;;;;;;;4945967;28;20040;-69
2022/05/26 12:12:07;;;;;;;5.32;1.75;;;;;;;;;;4941634;28;20607;-72
2022/05/26 12:14:43;;;;;;;7.35;1.77;;;;;;;;;;4941605;28;20089;-73
2022/05/26 12:17:30;;;;;;;7.70;2.05;;;;;;;;;;4932865;28;20043;-71
2022/05/26 12:20:11;;;;;;;7.03;1.70;;;;;;;;;;4939401;28;20062;-71
2022/05/26 12:23:00;;;;;;;5.72;1.77;;;;;;;;;;4942227;28;20570;-73
2022/05/26 12:25:34;;;;;;;5.88;1.60;;;;;;;;;;4943781;28;20053;-70
2022/05/26 12:28:10;;;;;;;3.50;1.35;;;;;;;;;;4945284;28;20077;-70
2022/05/26 12:30:44;;;;;;;4.90;1.70;;;;;;;;;;4938951;28;20135;-70
2022/05/26 12:33:29;;;;;;;4.80;1.80;;;;;;;;;;4932752;28;20046;-69
2022/05/26 12:36:13;;;;;;;2.42;1.50;;;;;;;;;;4946902;28;20055;-70
2022/05/26 12:38:57;;;;;;;;;;;;;;;;;;4938315;29;20040;-70
2022/05/26 12:41:38;;;;;;;;;;;;;;;;;;4946806;28;19918;-70
2022/05/26 12:44:30;;;;;;;4.68;1.60;;;;;;;;;;4941398;28;19926;-70
2022/05/26 12:47:20;;;;;;;7.63;2.00;;;;;;;;;;4958819;28;20043;-70
2022/05/26 12:50:10;;;;;;;4.85;1.45;;;;;;;;;;4944886;28;20337;-70
2022/05/26 12:52:57;;;;;;;2.45;1.45;;;;;;;;;;4947043;28;20047;-70
2022/05/26 12:55:32;;;;;;;4.63;1.55;;;;;;;;;;4948397;28;20043;-69
2022/05/26 12:58:02;;;;;;;3.92;1.48;;;;;;;;;;4948280;28;20027;-70
2022/05/26 13:00:36;;;;;;;4.03;1.63;;;;;;;;;;4948363;28;20038;-69
2022/05/26 13:03:04;;;;;;;7.35;1.55;;;;;;;;;;4942225;28;20640;-69
2022/05/26 13:05:35;;;;;;;3.25;1.20;;;;;;;;;;4941238;28;20047;-69
2022/05/26 13:08:02;;;;;;;6.60;2.63;;;;;;;;;;4942561;28;20074;-70
2022/05/26 13:10:35;;;;;;;5.18;1.55;;;;;;;;;;4941998;28;20548;-70
2022/05/26 13:13:03;;;;;;;5.65;1.80;;;;;;;;;;4940369;28;20054;-68
2022/05/26 13:15:30;;;;;;;4.00;1.45;;;;;;;;;;4938141;28;20035;-68
2022/05/26 13:17:55;;;;;;;5.15;1.58;;;;;;;;;;4938565;28;20531;-67
2022/05/26 13:20:36;;;;;;;3.40;1.48;;;;;;;;;;4961610;28;20047;-68
2022/05/26 13:23:05;;;;;;;3.88;1.65;;;;;;;;;;4936977;28;20039;-67
2022/05/26 13:25:34;;;;;;;6.60;1.48;;;;;;;;;;4937034;28;20039;-68
2022/05/26 13:28:08;;;;;;;2.65;1.33;;;;;;;;;;4938955;28;20085;-68
2022/05/26 13:33:40;;;;;;;7.57;1.63;;;;;;;;;;4940233;29;20046;-68
2022/05/26 13:36:15;;;;;;;3.13;1.48;;;;;;;;;;4934065;28;20062;-68
2022/05/26 13:38:46;;;;;;;4.78;1.70;;;;;;;;;;4939148;28;20109;-68
2022/05/26 13:41:22;;;;;;;3.78;1.50;;;;;;;;;;4933868;28;20496;-67
2022/05/26 13:43:50;;;;;;;3.40;1.17;;;;;;;;;;4937305;28;20043;-68
2022/05/26 13:46:43;;;;;;;5.85;1.40;;;;;;;;;;4941565;28;20148;-68
2022/05/26 13:49:24;;;;;;;7.28;1.52;;;;;;;;;;4935933;28;20742;-67
2022/05/26 13:51:53;;;;;;;3.67;1.35;;;;;;;;;;4939424;28;20622;-67
2022/05/26 13:54:29;;;;;;;5.45;1.65;;;;;;;;;;4938445;28;20044;-67
2022/05/26 13:56:59;;;;;;;4.93;1.50;;;;;;;;;;4938776;28;20508;-67
2022/05/26 13:59:25;;;;;;;4.60;1.55;;;;;;;;;;4937211;28;20142;-67
2022/05/26 14:02:10;;;;;;;3.63;1.30;;;;;;;;;;4940700;28;20110;-67
2022/05/26 14:04:39;;;;;;;2.50;1.40;;;;;;;;;;4935307;28;20035;-67
2022/05/26 14:07:23;;;;;;;3.15;1.60;;;;;;;;;;4938996;28;20032;-67
2022/05/26 14:10:00;;;;;;;6.53;1.85;;;;;;;;;;4939918;28;20040;-67
2022/05/26 14:12:28;;;;;;;6.00;1.70;;;;;;;;;;4939117;28;20062;-66
2022/05/26 14:14:54;;;;;;;5.18;1.40;;;;;;;;;;4939480;28;20063;-66
2022/05/26 14:17:41;;;;;;;5.97;1.50;;;;;;;;;;4935534;28;20353;-67
2022/05/26 14:20:26;;;;;;;5.47;1.38;;;;;;;;;;4938239;28;20051;-67
2022/05/26 14:22:53;;;;;;;9.52;1.77;;;;;;;;;;4940034;28;20453;-67
2022/05/26 14:25:24;;;;;;;3.75;1.58;;;;;;;;;;4935082;28;20138;-67
2022/05/26 14:27:57;;;;;;;6.50;1.95;;;;;;;;;;4943031;29;20134;-67
2022/05/26 14:30:42;;;;;;;6.07;1.60;;;;;;;;;;4940552;28;20082;-67
2022/05/26 14:33:22;;;;;;;4.60;1.30;;;;;;;;;;4936313;28;20055;-67
2022/05/26 14:35:49;;;;;;;4.20;1.63;;;;;;;;;;4930593;28;20090;-68
2022/05/26 14:38:15;;;;;;;4.65;1.55;;;;;;;;;;4933663;28;20499;-66
2022/05/26 14:40:42;;;;;;;4.63;1.30;;;;;;;;;;4932755;28;20495;-67
2022/05/26 14:43:08;;;;;;;7.13;1.73;;;;;;;;;;4949026;28;20039;-67
2022/05/26 14:45:34;;;;;;;5.70;1.60;;;;;;;;;;4935283;28;20040;-67
2022/05/26 14:48:04;;;;;;;8.43;1.88;;;;;;;;;;4934353;28;20894;-66
2022/05/26 14:50:31;;;;;;;5.18;1.73;;;;;;;;;;4933802;28;20389;-67
2022/05/26 14:52:58;;;;;;;4.47;1.63;;;;;;;;;;4932487;28;20043;-67
2022/05/26 14:55:27;;;;;;;12.40;1.75;;;;;;;;;;4934787;28;20054;-67
2022/05/26 14:57:52;;;;;;;5.97;1.73;;;;;;;;;;4937460;28;20035;-67
2022/05/26 15:00:21;;;;;;;9.70;1.60;;;;;;;;;;4935493;28;20055;-67
2022/05/26 15:02:47;;;;;;;4.35;1.80;;;;;;;;;;4936354;28;20035;-66
2022/05/26 15:05:12;;;;;;;4.13;1.48;;;;;;;;;;4936792;28;20047;-67
2022/05/26 15:07:40;;;;;;;4.90;1.70;;;;;;;;;;4935900;28;20054;-66
2022/05/26 15:10:07;;;;;;;3.83;1.60;;;;;;;;;;4938507;28;20023;-67
2022/05/26 15:12:34;;;;;;;3.38;1.67;;;;;;;;;;4940812;28;20141;-67
2022/05/26 15:15:00;;;;;;;3.15;1.48;;;;;;;;;;4938701;28;20578;-67
2022/05/26 15:17:26;;;;;;;5.07;1.40;;;;;;;;;;4939225;28;20077;-67
2022/05/26 15:19:55;;;;;;;3.75;1.70;;;;;;;;;;4935842;28;20043;-67
2022/05/26 15:22:22;;;;;;;4.28;1.77;;;;;;;;;;4937772;28;20328;-66
2022/05/26 15:24:49;;;;;;;6.22;1.70;;;;;;;;;;4937500;28;20030;-66
2022/05/26 15:27:21;;;;;;;4.40;1.83;;;;;;;;;;4951218;28;20079;-67
2022/05/26 15:29:47;;;;;;;4.90;1.73;;;;;;;;;;4936446;28;20080;-67
2022/05/26 15:32:43;;;;;;;3.70;1.58;;;;;;;;;;4937950;28;20039;-67
2022/05/26 15:35:15;;;;;;;4.75;1.67;;;;;;;;;;4939672;28;20444;-67
2022/05/26 15:37:45;;;;;;;5.60;1.85;;;;;;;;;;4941116;28;20130;-67
2022/05/26 15:40:15;;;;;;;4.38;1.70;;;;;;;;;;4938050;28;20503;-67
2022/05/26 15:42:41;;;;;;;6.35;1.70;;;;;;;;;;4938632;28;20755;-67